sensor_id;sensor_type;location;lat;lon;timestamp;temperature;humidity
36186;DHT22;22228;53.222;7.446;2023-06-22T00:01:28;17.50;99.90
36186;DHT22;22228;53.222;7.446;2023-06-22T00:03:48;17.50;99.90
36186;DHT22;22228;53.222;7.446;2023-06-22T00:06:09;17.40;99.90
36186;DHT22;22228;53.222;7.446;2023-06-22T00:08:30;17.40;99.90
36186;DHT22;22228;53.222;7.446;2023-06-22T00:10:50;17.40;99.90
36186;DHT22;22228;53.222;7.446;2023-06-22T00:13:13;17.40;99.90
36186;DHT22;22228;53.222;7.446;2023-06-22T03:02:51;15.90;99.90
36186;DHT22;22228;53.222;7.446;2023-06-22T03:05:13;15.90;99.90
36186;DHT22;22228;53.222;7.446;2023-06-22T03:07:34;15.80;99.90
36186;DHT22;22228;53.222;7.446;2023-06-22T03:10:02;15.90;99.90
36186;DHT22;22228;53.222;7.446;2023-06-22T03:12:32;15.90;99.90
36186;DHT22;22228;53.222;7.446;2023-06-22T03:14:53;15.80;99.90
36186;DHT22;22228;53.222;7.446;2023-06-22T03:17:20;15.80;99.90
36186;DHT22;22228;53.222;7.446;2023-06-22T03:19:42;15.80;99.90
36186;DHT22;22228;53.222;7.446;2023-06-22T03:22:02;15.70;99.90
36186;DHT22;22228;53.222;7.446;2023-06-22T03:24:23;15.70;99.90
36186;DHT22;22228;53.222;7.446;2023-06-22T03:26:43;15.70;99.90
36186;DHT22;22228;53.222;7.446;2023-06-22T03:29:05;15.70;99.90
36186;DHT22;22228;53.222;7.446;2023-06-22T03:31:27;15.70;99.90
36186;DHT22;22228;53.222;7.446;2023-06-22T03:33:48;15.70;99.90
36186;DHT22;22228;53.222;7.446;2023-06-22T03:36:10;15.70;99.90
36186;DHT22;22228;53.222;7.446;2023-06-22T03:38:30;15.70;99.90
36186;DHT22;22228;53.222;7.446;2023-06-22T03:40:50;15.70;99.90
36186;DHT22;22228;53.222;7.446;2023-06-22T03:43:11;15.70;99.90
36186;DHT22;22228;53.222;7.446;2023-06-22T03:45:32;15.70;99.90
36186;DHT22;22228;53.222;7.446;2023-06-22T03:47:52;15.70;99.90
36186;DHT22;22228;53.222;7.446;2023-06-22T03:50:13;15.70;99.90
36186;DHT22;22228;53.222;7.446;2023-06-22T03:52:35;15.80;99.90
36186;DHT22;22228;53.222;7.446;2023-06-22T03:54:55;15.80;99.90
36186;DHT22;22228;53.222;7.446;2023-06-22T03:57:15;15.80;99.90
36186;DHT22;22228;53.222;7.446;2023-06-22T03:59:36;15.90;99.90
36186;DHT22;22228;53.222;7.446;2023-06-22T04:01:56;15.90;99.90
36186;DHT22;22228;53.222;7.446;2023-06-22T04:04:17;15.90;99.90
36186;DHT22;22228;53.222;7.446;2023-06-22T04:06:37;16.00;99.90
36186;DHT22;22228;53.222;7.446;2023-06-22T04:08:59;16.00;99.90
36186;DHT22;22228;53.222;7.446;2023-06-22T04:11:20;16.00;99.90
36186;DHT22;22228;53.222;7.446;2023-06-22T04:13:40;16.10;99.90
36186;DHT22;22228;53.222;7.446;2023-06-22T04:16:01;16.10;99.90
36186;DHT22;22228;53.222;7.446;2023-06-22T04:18:21;16.20;99.90
36186;DHT22;22228;53.222;7.446;2023-06-22T04:20:42;16.20;99.90
36186;DHT22;22228;53.222;7.446;2023-06-22T04:23:06;16.20;99.90
36186;DHT22;22228;53.222;7.446;2023-06-22T04:25:28;16.30;99.90
36186;DHT22;22228;53.222;7.446;2023-06-22T04:27:48;16.30;99.90
36186;DHT22;22228;53.222;7.446;2023-06-22T04:30:09;16.40;99.90
36186;DHT22;22228;53.222;7.446;2023-06-22T04:32:30;16.40;99.90
36186;DHT22;22228;53.222;7.446;2023-06-22T04:34:50;16.50;99.90
36186;DHT22;22228;53.222;7.446;2023-06-22T04:37:11;16.50;99.90
36186;DHT22;22228;53.222;7.446;2023-06-22T04:39:34;16.60;99.90
36186;DHT22;22228;53.222;7.446;2023-06-22T04:41:56;16.60;99.90
36186;DHT22;22228;53.222;7.446;2023-06-22T04:44:19;16.60;99.90
36186;DHT22;22228;53.222;7.446;2023-06-22T04:46:43;16.70;99.90
36186;DHT22;22228;53.222;7.446;2023-06-22T04:49:05;16.70;99.90
36186;DHT22;22228;53.222;7.446;2023-06-22T04:51:28;16.70;99.90
36186;DHT22;22228;53.222;7.446;2023-06-22T04:53:49;16.70;99.90
36186;DHT22;22228;53.222;7.446;2023-06-22T04:56:10;16.70;99.90
36186;DHT22;22228;53.222;7.446;2023-06-22T04:58:32;16.70;99.90
36186;DHT22;22228;53.222;7.446;2023-06-22T05:00:52;16.80;99.90
36186;DHT22;22228;53.222;7.446;2023-06-22T05:03:15;16.80;99.90
36186;DHT22;22228;53.222;7.446;2023-06-22T05:05:37;16.80;99.90
36186;DHT22;22228;53.222;7.446;2023-06-22T05:08:00;16.80;99.90
36186;DHT22;22228;53.222;7.446;2023-06-22T05:10:20;16.90;99.90
36186;DHT22;22228;53.222;7.446;2023-06-22T05:12:41;16.90;99.90
36186;DHT22;22228;53.222;7.446;2023-06-22T05:15:04;17.00;99.90
36186;DHT22;22228;53.222;7.446;2023-06-22T05:17:25;17.00;99.90
36186;DHT22;22228;53.222;7.446;2023-06-22T05:19:45;17.10;99.90
36186;DHT22;22228;53.222;7.446;2023-06-22T05:22:07;17.20;99.90
36186;DHT22;22228;53.222;7.446;2023-06-22T05:24:27;17.30;99.90
36186;DHT22;22228;53.222;7.446;2023-06-22T05:26:48;17.30;99.90
36186;DHT22;22228;53.222;7.446;2023-06-22T05:29:08;17.40;99.90
36186;DHT22;22228;53.222;7.446;2023-06-22T05:31:30;17.50;99.90
36186;DHT22;22228;53.222;7.446;2023-06-22T05:33:52;17.50;99.90
36186;DHT22;22228;53.222;7.446;2023-06-22T05:36:13;17.60;99.90
36186;DHT22;22228;53.222;7.446;2023-06-22T05:38:33;17.60;99.90
36186;DHT22;22228;53.222;7.446;2023-06-22T05:40:54;17.70;99.90
36186;DHT22;22228;53.222;7.446;2023-06-22T05:43:15;17.80;99.90
36186;DHT22;22228;53.222;7.446;2023-06-22T05:45:35;17.90;99.90
36186;DHT22;22228;53.222;7.446;2023-06-22T05:47:57;18.00;99.90
36186;DHT22;22228;53.222;7.446;2023-06-22T05:50:18;18.10;99.90
36186;DHT22;22228;53.222;7.446;2023-06-22T05:52:38;18.30;99.90
36186;DHT22;22228;53.222;7.446;2023-06-22T05:54:59;18.40;99.90
36186;DHT22;22228;53.222;7.446;2023-06-22T05:57:19;18.60;99.90
36186;DHT22;22228;53.222;7.446;2023-06-22T05:59:41;18.80;99.90
36186;DHT22;22228;53.222;7.446;2023-06-22T06:02:01;19.00;99.90
36186;DHT22;22228;53.222;7.446;2023-06-22T06:04:23;19.20;99.90
36186;DHT22;22228;53.222;7.446;2023-06-22T06:06:44;19.30;99.90
36186;DHT22;22228;53.222;7.446;2023-06-22T06:09:06;19.40;99.90
36186;DHT22;22228;53.222;7.446;2023-06-22T06:11:26;19.50;99.90
36186;DHT22;22228;53.222;7.446;2023-06-22T06:13:47;19.60;99.90
36186;DHT22;22228;53.222;7.446;2023-06-22T06:16:07;19.70;99.90
36186;DHT22;22228;53.222;7.446;2023-06-22T06:18:28;19.90;99.90
36186;DHT22;22228;53.222;7.446;2023-06-22T06:20:50;20.00;99.90
36186;DHT22;22228;53.222;7.446;2023-06-22T06:23:10;20.10;96.50
36186;DHT22;22228;53.222;7.446;2023-06-22T06:25:31;20.10;70.10
36186;DHT22;22228;53.222;7.446;2023-06-22T06:27:52;20.20;67.10
36186;DHT22;22228;53.222;7.446;2023-06-22T06:30:15;20.40;1.00
36186;DHT22;22228;53.222;7.446;2023-06-22T06:32:35;20.50;99.90
36186;DHT22;22228;53.222;7.446;2023-06-22T06:34:56;20.50;98.80
36186;DHT22;22228;53.222;7.446;2023-06-22T06:37:18;20.50;99.90
36186;DHT22;22228;53.222;7.446;2023-06-22T06:39:38;20.50;99.90
36186;DHT22;22228;53.222;7.446;2023-06-22T06:41:58;20.60;99.90
36186;DHT22;22228;53.222;7.446;2023-06-22T06:44:19;20.60;1.00
36186;DHT22;22228;53.222;7.446;2023-06-22T06:46:40;20.70;99.90
36186;DHT22;22228;53.222;7.446;2023-06-22T06:49:01;20.90;1.00
36186;DHT22;22228;53.222;7.446;2023-06-22T06:51:21;21.00;1.00
36186;DHT22;22228;53.222;7.446;2023-06-22T06:53:43;21.10;99.90
36186;DHT22;22228;53.222;7.446;2023-06-22T06:56:35;21.10;99.90
36186;DHT22;22228;53.222;7.446;2023-06-22T06:58:56;21.10;99.90
36186;DHT22;22228;53.222;7.446;2023-06-22T07:04:37;21.20;1.00
36186;DHT22;22228;53.222;7.446;2023-06-22T07:07:01;21.30;99.90
36186;DHT22;22228;53.222;7.446;2023-06-22T07:09:23;21.50;99.90
36186;DHT22;22228;53.222;7.446;2023-06-22T07:11:43;21.60;1.00
36186;DHT22;22228;53.222;7.446;2023-06-22T07:14:04;21.60;99.90
36186;DHT22;22228;53.222;7.446;2023-06-22T07:16:24;21.70;1.00
36186;DHT22;22228;53.222;7.446;2023-06-22T07:18:46;21.60;99.90
36186;DHT22;22228;53.222;7.446;2023-06-22T07:21:07;21.70;1.00
36186;DHT22;22228;53.222;7.446;2023-06-22T07:23:28;21.70;99.90
36186;DHT22;22228;53.222;7.446;2023-06-22T07:25:49;21.80;1.00
36186;DHT22;22228;53.222;7.446;2023-06-22T07:28:10;22.00;1.00
36186;DHT22;22228;53.222;7.446;2023-06-22T07:30:31;22.20;99.90
36186;DHT22;22228;53.222;7.446;2023-06-22T07:32:53;22.40;99.90
36186;DHT22;22228;53.222;7.446;2023-06-22T07:35:13;22.50;99.90
36186;DHT22;22228;53.222;7.446;2023-06-22T07:37:35;22.50;1.00
36186;DHT22;22228;53.222;7.446;2023-06-22T07:39:56;22.60;99.90
36186;DHT22;22228;53.222;7.446;2023-06-22T07:42:19;22.70;50.20
36186;DHT22;22228;53.222;7.446;2023-06-22T07:44:39;22.80;99.90
36186;DHT22;22228;53.222;7.446;2023-06-22T07:47:00;22.90;1.00
36186;DHT22;22228;53.222;7.446;2023-06-22T07:49:20;22.90;99.90
36186;DHT22;22228;53.222;7.446;2023-06-22T07:51:41;22.90;99.90
36186;DHT22;22228;53.222;7.446;2023-06-22T07:54:02;23.00;99.90
36186;DHT22;22228;53.222;7.446;2023-06-22T07:56:22;23.10;99.90
36186;DHT22;22228;53.222;7.446;2023-06-22T07:58:44;23.30;99.90
36186;DHT22;22228;53.222;7.446;2023-06-22T08:01:05;23.30;1.00
36186;DHT22;22228;53.222;7.446;2023-06-22T08:03:26;23.30;1.00
36186;DHT22;22228;53.222;7.446;2023-06-22T08:05:46;23.30;1.00
36186;DHT22;22228;53.222;7.446;2023-06-22T08:08:08;23.30;1.00
36186;DHT22;22228;53.222;7.446;2023-06-22T08:10:28;23.30;1.00
36186;DHT22;22228;53.222;7.446;2023-06-22T08:12:49;23.40;1.00
36186;DHT22;22228;53.222;7.446;2023-06-22T08:15:12;23.40;1.00
36186;DHT22;22228;53.222;7.446;2023-06-22T08:17:32;23.50;1.00
36186;DHT22;22228;53.222;7.446;2023-06-22T08:19:53;23.60;1.00
36186;DHT22;22228;53.222;7.446;2023-06-22T08:22:13;23.80;1.00
36186;DHT22;22228;53.222;7.446;2023-06-22T08:24:34;23.80;1.00
36186;DHT22;22228;53.222;7.446;2023-06-22T08:26:55;23.90;1.00
36186;DHT22;22228;53.222;7.446;2023-06-22T08:29:15;24.00;1.00
36186;DHT22;22228;53.222;7.446;2023-06-22T08:31:37;24.20;1.00
36186;DHT22;22228;53.222;7.446;2023-06-22T08:33:57;24.10;1.00
36186;DHT22;22228;53.222;7.446;2023-06-22T08:36:18;24.20;1.00
36186;DHT22;22228;53.222;7.446;2023-06-22T08:38:38;24.40;1.00
36186;DHT22;22228;53.222;7.446;2023-06-22T08:40:59;24.50;1.00
36186;DHT22;22228;53.222;7.446;2023-06-22T08:43:20;24.50;1.00
36186;DHT22;22228;53.222;7.446;2023-06-22T08:45:40;24.50;1.00
36186;DHT22;22228;53.222;7.446;2023-06-22T08:48:02;24.60;1.00
36186;DHT22;22228;53.222;7.446;2023-06-22T08:50:23;24.60;1.00
36186;DHT22;22228;53.222;7.446;2023-06-22T08:52:43;24.70;1.00
36186;DHT22;22228;53.222;7.446;2023-06-22T08:55:05;24.80;1.00
36186;DHT22;22228;53.222;7.446;2023-06-22T08:57:26;25.00;1.00
36186;DHT22;22228;53.222;7.446;2023-06-22T08:59:46;25.10;1.00
36186;DHT22;22228;53.222;7.446;2023-06-22T09:02:07;25.10;1.00
36186;DHT22;22228;53.222;7.446;2023-06-22T09:04:29;25.00;1.00
36186;DHT22;22228;53.222;7.446;2023-06-22T09:06:53;24.80;1.00
36186;DHT22;22228;53.222;7.446;2023-06-22T09:09:15;24.90;1.00
36186;DHT22;22228;53.222;7.446;2023-06-22T09:11:35;24.80;1.00
36186;DHT22;22228;53.222;7.446;2023-06-22T09:13:56;25.00;1.00
36186;DHT22;22228;53.222;7.446;2023-06-22T09:16:16;25.00;1.00
36186;DHT22;22228;53.222;7.446;2023-06-22T09:18:37;25.00;1.00
36186;DHT22;22228;53.222;7.446;2023-06-22T09:20:59;25.10;1.00
36186;DHT22;22228;53.222;7.446;2023-06-22T09:23:20;25.20;1.00
36186;DHT22;22228;53.222;7.446;2023-06-22T09:25:41;25.20;1.00
36186;DHT22;22228;53.222;7.446;2023-06-22T09:28:01;25.40;1.00
36186;DHT22;22228;53.222;7.446;2023-06-22T09:30:22;25.50;1.00
36186;DHT22;22228;53.222;7.446;2023-06-22T09:32:42;25.50;1.00
36186;DHT22;22228;53.222;7.446;2023-06-22T09:35:05;25.70;1.00
36186;DHT22;22228;53.222;7.446;2023-06-22T09:37:27;26.00;1.00
36186;DHT22;22228;53.222;7.446;2023-06-22T09:39:48;26.00;1.00
36186;DHT22;22228;53.222;7.446;2023-06-22T09:42:08;26.00;1.00
36186;DHT22;22228;53.222;7.446;2023-06-22T09:44:29;26.10;1.00
36186;DHT22;22228;53.222;7.446;2023-06-22T09:46:50;26.30;1.00
36186;DHT22;22228;53.222;7.446;2023-06-22T09:49:10;26.20;1.00
36186;DHT22;22228;53.222;7.446;2023-06-22T09:51:31;26.30;1.00
36186;DHT22;22228;53.222;7.446;2023-06-22T09:53:53;26.40;1.00
36186;DHT22;22228;53.222;7.446;2023-06-22T09:56:14;26.60;1.00
36186;DHT22;22228;53.222;7.446;2023-06-22T09:58:35;26.80;1.00
36186;DHT22;22228;53.222;7.446;2023-06-22T10:00:55;26.90;1.00
36186;DHT22;22228;53.222;7.446;2023-06-22T10:03:16;27.00;1.00
36186;DHT22;22228;53.222;7.446;2023-06-22T10:05:36;27.00;1.00
36186;DHT22;22228;53.222;7.446;2023-06-22T10:07:57;27.00;1.00
36186;DHT22;22228;53.222;7.446;2023-06-22T10:10:19;27.20;1.00
36186;DHT22;22228;53.222;7.446;2023-06-22T10:12:42;27.30;1.00
36186;DHT22;22228;53.222;7.446;2023-06-22T10:15:04;27.40;1.00
36186;DHT22;22228;53.222;7.446;2023-06-22T10:17:24;27.50;1.00
36186;DHT22;22228;53.222;7.446;2023-06-22T10:19:45;27.60;1.00
36186;DHT22;22228;53.222;7.446;2023-06-22T10:22:06;27.60;1.00
36186;DHT22;22228;53.222;7.446;2023-06-22T10:24:27;27.40;99.90
36186;DHT22;22228;53.222;7.446;2023-06-22T10:26:49;27.40;99.90
36186;DHT22;22228;53.222;7.446;2023-06-22T10:29:09;27.50;99.90
36186;DHT22;22228;53.222;7.446;2023-06-22T10:31:30;27.40;99.90
36186;DHT22;22228;53.222;7.446;2023-06-22T10:33:50;27.50;99.90
36186;DHT22;22228;53.222;7.446;2023-06-22T10:36:11;27.80;99.90
36186;DHT22;22228;53.222;7.446;2023-06-22T10:38:32;28.30;99.90
36186;DHT22;22228;53.222;7.446;2023-06-22T10:40:52;28.60;99.90
36186;DHT22;22228;53.222;7.446;2023-06-22T10:43:14;28.90;1.00
36186;DHT22;22228;53.222;7.446;2023-06-22T10:45:35;29.10;99.90
36186;DHT22;22228;53.222;7.446;2023-06-22T10:47:55;29.30;99.90
36186;DHT22;22228;53.222;7.446;2023-06-22T10:50:16;29.50;99.90
36186;DHT22;22228;53.222;7.446;2023-06-22T10:52:37;29.70;99.90
36186;DHT22;22228;53.222;7.446;2023-06-22T10:54:57;29.80;99.90
36186;DHT22;22228;53.222;7.446;2023-06-22T10:57:18;29.80;99.90
36186;DHT22;22228;53.222;7.446;2023-06-22T10:59:40;30.20;99.90
36186;DHT22;22228;53.222;7.446;2023-06-22T11:02:00;30.60;99.90
36186;DHT22;22228;53.222;7.446;2023-06-22T11:04:22;31.10;99.90
36186;DHT22;22228;53.222;7.446;2023-06-22T11:06:42;31.60;99.90
36186;DHT22;22228;53.222;7.446;2023-06-22T11:09:03;31.50;99.90
36186;DHT22;22228;53.222;7.446;2023-06-22T11:11:23;31.60;99.90
36186;DHT22;22228;53.222;7.446;2023-06-22T11:13:44;31.60;99.90
36186;DHT22;22228;53.222;7.446;2023-06-22T11:16:06;31.50;99.90
36186;DHT22;22228;53.222;7.446;2023-06-22T11:18:27;31.30;99.90
36186;DHT22;22228;53.222;7.446;2023-06-22T11:20:47;31.30;99.90
36186;DHT22;22228;53.222;7.446;2023-06-22T11:23:08;31.30;99.90
36186;DHT22;22228;53.222;7.446;2023-06-22T11:25:30;31.20;99.90
36186;DHT22;22228;53.222;7.446;2023-06-22T11:27:51;31.50;99.90
36186;DHT22;22228;53.222;7.446;2023-06-22T11:30:13;31.60;99.90
36186;DHT22;22228;53.222;7.446;2023-06-22T11:32:35;32.10;99.90
36186;DHT22;22228;53.222;7.446;2023-06-22T11:34:55;32.50;99.70
36186;DHT22;22228;53.222;7.446;2023-06-22T11:37:16;32.60;37.40
36186;DHT22;22228;53.222;7.446;2023-06-22T11:39:36;33.00;1.00
36186;DHT22;22228;53.222;7.446;2023-06-22T11:41:57;33.60;1.00
36186;DHT22;22228;53.222;7.446;2023-06-22T11:44:18;33.80;1.00
36186;DHT22;22228;53.222;7.446;2023-06-22T11:46:38;33.90;1.00
36186;DHT22;22228;53.222;7.446;2023-06-22T11:49:01;34.00;1.00
36186;DHT22;22228;53.222;7.446;2023-06-22T11:51:21;33.80;1.00
36186;DHT22;22228;53.222;7.446;2023-06-22T11:53:42;34.40;1.00
36186;DHT22;22228;53.222;7.446;2023-06-22T11:56:02;35.00;1.00
36186;DHT22;22228;53.222;7.446;2023-06-22T11:58:23;35.70;1.00
36186;DHT22;22228;53.222;7.446;2023-06-22T12:00:43;35.70;1.00
36186;DHT22;22228;53.222;7.446;2023-06-22T12:03:04;35.50;99.90
36186;DHT22;22228;53.222;7.446;2023-06-22T12:05:26;34.30;99.90
36186;DHT22;22228;53.222;7.446;2023-06-22T12:07:47;32.90;99.90
36186;DHT22;22228;53.222;7.446;2023-06-22T12:10:07;32.60;99.90
36186;DHT22;22228;53.222;7.446;2023-06-22T12:12:28;32.70;99.90
36186;DHT22;22228;53.222;7.446;2023-06-22T12:14:48;32.70;99.90
36186;DHT22;22228;53.222;7.446;2023-06-22T12:17:09;32.90;99.90
36186;DHT22;22228;53.222;7.446;2023-06-22T12:19:30;33.00;99.90
36186;DHT22;22228;53.222;7.446;2023-06-22T12:21:51;33.10;1.00
36186;DHT22;22228;53.222;7.446;2023-06-22T12:24:12;33.30;99.90
36186;DHT22;22228;53.222;7.446;2023-06-22T12:26:32;33.50;99.90
36186;DHT22;22228;53.222;7.446;2023-06-22T12:28:53;33.70;99.90
36186;DHT22;22228;53.222;7.446;2023-06-22T12:31:14;33.90;99.90
36186;DHT22;22228;53.222;7.446;2023-06-22T12:33:34;33.40;99.90
36186;DHT22;22228;53.222;7.446;2023-06-22T12:35:55;33.20;99.90
36186;DHT22;22228;53.222;7.446;2023-06-22T12:38:16;32.90;99.90
36186;DHT22;22228;53.222;7.446;2023-06-22T12:40:37;32.80;99.90
36186;DHT22;22228;53.222;7.446;2023-06-22T12:42:57;32.20;99.90
36186;DHT22;22228;53.222;7.446;2023-06-22T12:45:18;31.70;99.90
36186;DHT22;22228;53.222;7.446;2023-06-22T12:47:40;31.50;99.90
36186;DHT22;22228;53.222;7.446;2023-06-22T12:50:00;32.10;99.90
36186;DHT22;22228;53.222;7.446;2023-06-22T12:52:21;32.80;99.90
36186;DHT22;22228;53.222;7.446;2023-06-22T12:54:43;33.20;99.90
36186;DHT22;22228;53.222;7.446;2023-06-22T12:57:03;33.40;99.90
36186;DHT22;22228;53.222;7.446;2023-06-22T12:59:24;32.80;99.90
36186;DHT22;22228;53.222;7.446;2023-06-22T13:01:45;33.10;99.90
36186;DHT22;22228;53.222;7.446;2023-06-22T13:04:05;33.20;99.90
36186;DHT22;22228;53.222;7.446;2023-06-22T13:06:26;33.80;99.90
36186;DHT22;22228;53.222;7.446;2023-06-22T13:08:46;34.10;99.90
36186;DHT22;22228;53.222;7.446;2023-06-22T13:11:08;34.10;99.90
36186;DHT22;22228;53.222;7.446;2023-06-22T13:13:29;33.90;99.90
36186;DHT22;22228;53.222;7.446;2023-06-22T13:15:49;33.40;99.90
36186;DHT22;22228;53.222;7.446;2023-06-22T13:18:10;32.60;99.90
36186;DHT22;22228;53.222;7.446;2023-06-22T13:20:30;32.10;99.90
36186;DHT22;22228;53.222;7.446;2023-06-22T13:22:50;31.70;99.90
36186;DHT22;22228;53.222;7.446;2023-06-22T13:25:11;31.10;99.90
36186;DHT22;22228;53.222;7.446;2023-06-22T13:27:33;30.60;99.90
36186;DHT22;22228;53.222;7.446;2023-06-22T13:29:54;30.00;99.90
36186;DHT22;22228;53.222;7.446;2023-06-22T13:32:15;29.70;1.00
36186;DHT22;22228;53.222;7.446;2023-06-22T13:34:35;29.70;1.00
36186;DHT22;22228;53.222;7.446;2023-06-22T13:36:56;29.50;1.00
36186;DHT22;22228;53.222;7.446;2023-06-22T13:39:16;29.30;1.00
36186;DHT22;22228;53.222;7.446;2023-06-22T13:41:37;29.40;1.00
36186;DHT22;22228;53.222;7.446;2023-06-22T13:43:58;29.40;1.00
36186;DHT22;22228;53.222;7.446;2023-06-22T13:46:19;29.30;1.00
36186;DHT22;22228;53.222;7.446;2023-06-22T13:48:40;28.90;1.00
36186;DHT22;22228;53.222;7.446;2023-06-22T13:51:00;28.60;1.00
36186;DHT22;22228;53.222;7.446;2023-06-22T13:53:21;28.40;1.00
36186;DHT22;22228;53.222;7.446;2023-06-22T13:55:41;28.10;1.00
36186;DHT22;22228;53.222;7.446;2023-06-22T13:58:02;28.10;14.10
36186;DHT22;22228;53.222;7.446;2023-06-22T14:00:27;28.10;73.40
36186;DHT22;22228;53.222;7.446;2023-06-22T14:02:47;28.10;92.80
36186;DHT22;22228;53.222;7.446;2023-06-22T14:05:08;27.90;99.90
36186;DHT22;22228;53.222;7.446;2023-06-22T14:07:30;27.90;99.90
36186;DHT22;22228;53.222;7.446;2023-06-22T14:09:50;27.90;99.90
36186;DHT22;22228;53.222;7.446;2023-06-22T14:12:11;27.60;99.90
36186;DHT22;22228;53.222;7.446;2023-06-22T14:14:32;27.60;99.90
36186;DHT22;22228;53.222;7.446;2023-06-22T14:16:54;27.40;99.90
36186;DHT22;22228;53.222;7.446;2023-06-22T14:19:16;27.20;99.90
36186;DHT22;22228;53.222;7.446;2023-06-22T14:21:36;27.10;99.90
36186;DHT22;22228;53.222;7.446;2023-06-22T14:23:57;26.90;99.90
36186;DHT22;22228;53.222;7.446;2023-06-22T14:26:18;26.80;99.90
36186;DHT22;22228;53.222;7.446;2023-06-22T14:28:38;26.60;99.90
36186;DHT22;22228;53.222;7.446;2023-06-22T14:30:59;26.50;99.90
36186;DHT22;22228;53.222;7.446;2023-06-22T14:33:21;26.50;99.90
36186;DHT22;22228;53.222;7.446;2023-06-22T14:35:41;26.40;99.90
36186;DHT22;22228;53.222;7.446;2023-06-22T14:38:02;26.20;99.90
36186;DHT22;22228;53.222;7.446;2023-06-22T14:40:22;26.20;99.90
36186;DHT22;22228;53.222;7.446;2023-06-22T14:42:43;26.00;99.90
36186;DHT22;22228;53.222;7.446;2023-06-22T14:45:05;25.80;99.90
36186;DHT22;22228;53.222;7.446;2023-06-22T14:47:25;25.70;99.90
36186;DHT22;22228;53.222;7.446;2023-06-22T14:49:52;25.60;99.90
36186;DHT22;22228;53.222;7.446;2023-06-22T14:52:12;25.60;99.90
36186;DHT22;22228;53.222;7.446;2023-06-22T14:54:33;25.50;99.90
36186;DHT22;22228;53.222;7.446;2023-06-22T14:56:54;25.40;99.90
36186;DHT22;22228;53.222;7.446;2023-06-22T14:59:14;25.40;99.90
36186;DHT22;22228;53.222;7.446;2023-06-22T15:01:37;25.40;99.90
36186;DHT22;22228;53.222;7.446;2023-06-22T15:04:00;25.40;99.90
36186;DHT22;22228;53.222;7.446;2023-06-22T15:06:22;25.30;99.90
36186;DHT22;22228;53.222;7.446;2023-06-22T15:08:42;25.30;99.90
36186;DHT22;22228;53.222;7.446;2023-06-22T15:11:03;25.20;99.90
36186;DHT22;22228;53.222;7.446;2023-06-22T15:13:26;25.20;99.90
36186;DHT22;22228;53.222;7.446;2023-06-22T15:15:49;25.00;99.90
36186;DHT22;22228;53.222;7.446;2023-06-22T15:18:09;25.00;99.90
36186;DHT22;22228;53.222;7.446;2023-06-22T15:20:29;24.80;99.90
36186;DHT22;22228;53.222;7.446;2023-06-22T15:22:51;24.60;99.90
36186;DHT22;22228;53.222;7.446;2023-06-22T15:25:12;24.50;99.90
36186;DHT22;22228;53.222;7.446;2023-06-22T15:27:32;24.50;99.90
36186;DHT22;22228;53.222;7.446;2023-06-22T15:29:53;24.50;99.90
36186;DHT22;22228;53.222;7.446;2023-06-22T15:32:13;24.40;99.90
36186;DHT22;22228;53.222;7.446;2023-06-22T15:34:34;24.40;99.90
36186;DHT22;22228;53.222;7.446;2023-06-22T15:36:54;24.40;99.90
36186;DHT22;22228;53.222;7.446;2023-06-22T15:39:16;24.30;99.90
36186;DHT22;22228;53.222;7.446;2023-06-22T15:41:39;24.30;99.90
36186;DHT22;22228;53.222;7.446;2023-06-22T15:43:59;24.30;99.90
36186;DHT22;22228;53.222;7.446;2023-06-22T15:46:20;24.20;99.90
36186;DHT22;22228;53.222;7.446;2023-06-22T15:48:41;24.20;99.90
36186;DHT22;22228;53.222;7.446;2023-06-22T15:51:01;24.10;99.90
36186;DHT22;22228;53.222;7.446;2023-06-22T15:53:23;23.90;99.90
36186;DHT22;22228;53.222;7.446;2023-06-22T15:55:45;23.80;99.90
36186;DHT22;22228;53.222;7.446;2023-06-22T15:58:07;23.70;99.90
36186;DHT22;22228;53.222;7.446;2023-06-22T16:00:28;23.60;99.90
36186;DHT22;22228;53.222;7.446;2023-06-22T16:02:48;23.50;99.90
36186;DHT22;22228;53.222;7.446;2023-06-22T16:05:09;23.40;99.90
36186;DHT22;22228;53.222;7.446;2023-06-22T16:07:30;23.40;99.90
36186;DHT22;22228;53.222;7.446;2023-06-22T16:09:50;23.30;99.90
36186;DHT22;22228;53.222;7.446;2023-06-22T16:12:12;23.30;1.00
36186;DHT22;22228;53.222;7.446;2023-06-22T16:14:33;23.20;1.00
36186;DHT22;22228;53.222;7.446;2023-06-22T16:16:53;23.00;1.00
36186;DHT22;22228;53.222;7.446;2023-06-22T16:19:14;22.90;1.00
36186;DHT22;22228;53.222;7.446;2023-06-22T16:21:34;22.50;1.00
36186;DHT22;22228;53.222;7.446;2023-06-22T16:23:55;22.30;1.00
36186;DHT22;22228;53.222;7.446;2023-06-22T16:26:15;22.00;1.00
36186;DHT22;22228;53.222;7.446;2023-06-22T16:28:37;21.80;1.00
36186;DHT22;22228;53.222;7.446;2023-06-22T16:30:58;21.60;1.00
36186;DHT22;22228;53.222;7.446;2023-06-22T16:33:18;21.40;1.00
36186;DHT22;22228;53.222;7.446;2023-06-22T16:35:39;21.30;1.00
36186;DHT22;22228;53.222;7.446;2023-06-22T16:37:59;21.20;1.00
36186;DHT22;22228;53.222;7.446;2023-06-22T16:40:20;21.00;1.00
36186;DHT22;22228;53.222;7.446;2023-06-22T16:42:40;20.90;1.00
36186;DHT22;22228;53.222;7.446;2023-06-22T16:45:03;20.90;1.00
36186;DHT22;22228;53.222;7.446;2023-06-22T16:47:24;20.90;1.00
36186;DHT22;22228;53.222;7.446;2023-06-22T16:50:05;20.90;1.00
36186;DHT22;22228;53.222;7.446;2023-06-22T16:52:26;20.80;1.00
36186;DHT22;22228;53.222;7.446;2023-06-22T16:54:46;20.80;1.00
36186;DHT22;22228;53.222;7.446;2023-06-22T16:57:07;20.90;1.00
36186;DHT22;22228;53.222;7.446;2023-06-22T16:59:28;20.90;1.00
36186;DHT22;22228;53.222;7.446;2023-06-22T17:01:52;20.90;1.00
36186;DHT22;22228;53.222;7.446;2023-06-22T17:04:15;20.90;1.00
36186;DHT22;22228;53.222;7.446;2023-06-22T17:06:39;20.90;1.00
36186;DHT22;22228;53.222;7.446;2023-06-22T17:09:03;20.90;1.00
36186;DHT22;22228;53.222;7.446;2023-06-22T17:11:24;20.90;1.00
36186;DHT22;22228;53.222;7.446;2023-06-22T17:13:45;20.80;1.00
36186;DHT22;22228;53.222;7.446;2023-06-22T17:16:09;20.80;1.00
36186;DHT22;22228;53.222;7.446;2023-06-22T17:18:32;20.80;1.00
36186;DHT22;22228;53.222;7.446;2023-06-22T17:20:53;20.80;1.00
36186;DHT22;22228;53.222;7.446;2023-06-22T17:23:13;20.80;1.00
36186;DHT22;22228;53.222;7.446;2023-06-22T17:25:34;20.80;1.00
36186;DHT22;22228;53.222;7.446;2023-06-22T17:27:58;20.80;1.00
36186;DHT22;22228;53.222;7.446;2023-06-22T17:30:20;20.80;1.00
36186;DHT22;22228;53.222;7.446;2023-06-22T17:32:45;20.80;1.00
36186;DHT22;22228;53.222;7.446;2023-06-22T17:35:10;20.80;1.00
36186;DHT22;22228;53.222;7.446;2023-06-22T17:37:33;20.80;1.00
36186;DHT22;22228;53.222;7.446;2023-06-22T17:39:54;20.80;1.00
36186;DHT22;22228;53.222;7.446;2023-06-22T17:42:21;20.70;1.00
36186;DHT22;22228;53.222;7.446;2023-06-22T17:44:42;20.80;1.00
36186;DHT22;22228;53.222;7.446;2023-06-22T17:47:03;20.70;1.00
36186;DHT22;22228;53.222;7.446;2023-06-22T17:49:26;20.70;1.00